createdAt,value
2018-05-21T00:00:33.891Z,15.75
2018-05-21T00:01:34.168Z,15.72
2018-05-21T00:02:34.241Z,15.70
2018-05-21T00:03:34.435Z,15.67
2018-05-21T00:04:34.641Z,15.72
2018-05-21T00:05:34.836Z,15.72
2018-05-21T00:06:35.081Z,15.73
2018-05-21T00:07:35.130Z,15.61
2018-05-21T00:08:35.315Z,15.73
2018-05-21T00:09:35.525Z,15.62
2018-05-21T00:10:35.717Z,15.62
2018-05-21T00:11:35.926Z,15.58
2018-05-21T00:12:36.140Z,15.64
2018-05-21T00:13:36.360Z,15.68
2018-05-21T00:14:36.541Z,15.64
2018-05-21T00:15:36.839Z,15.79
2018-05-21T00:16:36.904Z,15.65
2018-05-21T00:17:37.105Z,15.64
2018-05-21T00:18:37.318Z,15.62
2018-05-21T00:19:37.523Z,15.55
2018-05-21T00:20:37.742Z,15.59
2018-05-21T00:21:37.817Z,15.62
2018-05-21T00:22:38.086Z,15.59
2018-05-21T00:23:38.154Z,15.59
2018-05-21T00:24:38.352Z,15.59
2018-05-21T00:25:38.530Z,15.62
2018-05-21T00:26:38.738Z,15.55
2018-05-21T00:27:38.948Z,15.59
2018-05-21T00:28:39.138Z,15.47
2018-05-21T00:29:39.321Z,15.54
2018-05-21T00:30:39.665Z,15.59
2018-05-21T00:31:39.726Z,15.54
2018-05-21T00:32:39.927Z,15.58
2018-05-21T00:33:40.140Z,15.75
2018-05-21T00:34:40.324Z,15.77
2018-05-21T00:35:40.527Z,15.59
2018-05-21T00:36:40.723Z,15.57
2018-05-21T00:37:40.993Z,15.61
2018-05-21T00:38:41.061Z,15.65
2018-05-21T00:39:41.243Z,15.58
2018-05-21T00:40:41.435Z,15.58
2018-05-21T00:41:41.645Z,15.51
2018-05-21T00:42:41.833Z,15.46
2018-05-21T00:43:42.043Z,15.47
2018-05-21T00:44:42.250Z,15.51
2018-05-21T00:45:42.436Z,15.47
2018-05-21T00:46:42.637Z,15.46
2018-05-21T00:47:42.831Z,15.52
2018-05-21T00:48:43.027Z,15.40
2018-05-21T00:49:43.208Z,15.39
2018-05-21T00:50:43.388Z,15.40
2018-05-21T00:51:43.586Z,15.39
2018-05-21T00:52:43.781Z,15.31
2018-05-21T00:53:43.986Z,15.33
2018-05-21T00:54:44.173Z,15.36
2018-05-21T00:55:44.361Z,15.24
2018-05-21T00:56:44.544Z,15.25
2018-05-21T00:57:44.759Z,15.27
2018-05-21T00:58:44.943Z,15.15
2018-05-21T00:59:45.137Z,15.25
2018-05-21T01:00:45.363Z,15.09
2018-05-21T01:01:45.582Z,15.18
2018-05-21T01:02:45.789Z,15.19
2018-05-21T01:03:45.973Z,15.09
2018-05-21T01:04:46.178Z,15.14
2018-05-21T01:05:46.379Z,15.04
2018-05-21T01:06:46.573Z,14.91
2018-05-21T01:07:46.761Z,15.06
2018-05-21T01:08:46.951Z,14.97
2018-05-21T01:09:47.142Z,14.91
2018-05-21T01:10:47.351Z,14.88
2018-05-21T01:11:47.562Z,14.84
2018-05-21T01:12:47.744Z,14.86
2018-05-21T01:13:48.018Z,14.77
2018-05-21T01:14:48.158Z,14.77
2018-05-21T01:15:48.369Z,14.79
2018-05-21T01:16:48.544Z,14.84
2018-05-21T01:17:48.732Z,14.70
2018-05-21T01:18:48.934Z,14.72
2018-05-21T01:19:49.138Z,14.78
2018-05-21T01:20:49.334Z,14.81
2018-05-21T01:21:49.560Z,14.81
2018-05-21T01:22:49.618Z,14.78
2018-05-21T01:23:49.832Z,14.88
2018-05-21T01:24:50.016Z,14.89
2018-05-21T01:25:50.202Z,14.72
2018-05-21T01:26:50.394Z,14.78
2018-05-21T01:27:50.581Z,14.69
2018-05-21T01:28:50.764Z,14.60
2018-05-21T01:29:50.965Z,14.69
2018-05-21T01:30:51.155Z,14.69
2018-05-21T01:31:51.345Z,14.62
2018-05-21T01:32:51.563Z,14.70
2018-05-21T01:34:00.881Z,14.72
2018-05-21T01:34:59.930Z,14.73
2018-05-21T01:35:51.997Z,14.77
2018-05-21T01:37:00.072Z,14.73
2018-05-21T01:37:52.372Z,14.70
2018-05-21T01:39:00.193Z,14.73
2018-05-21T01:40:00.250Z,14.66
2018-05-21T01:41:00.324Z,14.73
2018-05-21T01:42:01.392Z,14.59
2018-05-21T01:42:53.314Z,14.68
2018-05-21T01:43:53.535Z,14.72
2018-05-21T01:44:53.745Z,14.70
2018-05-21T01:45:53.933Z,14.78
2018-05-21T01:46:54.125Z,14.65
2018-05-21T01:47:54.330Z,14.60
2018-05-21T01:48:54.523Z,14.62
2018-05-21T01:49:54.715Z,14.55
2018-05-21T01:50:54.901Z,14.44
2018-05-21T01:51:55.108Z,14.36
2018-05-21T01:52:55.291Z,14.25
2018-05-21T01:53:55.476Z,14.23
2018-05-21T01:54:55.684Z,14.10
2018-05-21T01:55:55.879Z,14.08
2018-05-21T01:56:56.085Z,14.08
2018-05-21T01:57:56.285Z,14.03
2018-05-21T01:58:56.469Z,14.00
2018-05-21T01:59:56.705Z,13.92
2018-05-21T02:00:56.777Z,13.81
2018-05-21T02:01:56.966Z,13.83
2018-05-21T02:02:57.165Z,13.83
2018-05-21T02:03:57.350Z,13.75
2018-05-21T02:04:57.554Z,13.75
2018-05-21T02:05:57.749Z,13.70
2018-05-21T02:06:57.942Z,13.63
2018-05-21T02:07:58.130Z,13.60
2018-05-21T02:08:58.359Z,13.59
2018-05-21T02:09:58.437Z,13.35
2018-05-21T02:10:58.633Z,13.37
2018-05-21T02:11:58.830Z,13.47
2018-05-21T02:12:59.022Z,13.37
2018-05-21T02:13:59.214Z,13.19
2018-05-21T02:14:59.412Z,13.25
2018-05-21T02:15:59.605Z,13.27
2018-05-21T02:16:59.815Z,13.23
2018-05-21T02:18:00.023Z,13.15
2018-05-21T02:19:00.206Z,13.12
2018-05-21T02:20:00.496Z,13.08
2018-05-21T02:21:00.651Z,13.03
2018-05-21T02:22:00.804Z,13.05
2018-05-21T02:23:01.011Z,13.04
2018-05-21T02:24:01.228Z,13.01
2018-05-21T02:25:01.431Z,13.04
2018-05-21T02:26:01.645Z,12.95
2018-05-21T02:27:01.899Z,13.09
2018-05-21T02:28:02.038Z,12.98
2018-05-21T02:29:02.235Z,13.09
2018-05-21T02:30:02.420Z,12.83
2018-05-21T02:31:02.625Z,12.87
2018-05-21T02:32:02.843Z,13.00
2018-05-21T02:33:03.041Z,12.91
2018-05-21T02:34:03.270Z,12.86
2018-05-21T02:35:03.457Z,12.87
2018-05-21T02:36:03.653Z,12.87
2018-05-21T02:37:03.864Z,12.82
2018-05-21T02:38:04.070Z,12.80
2018-05-21T02:39:04.277Z,12.75
2018-05-21T02:40:04.490Z,12.76
2018-05-21T02:41:04.687Z,12.72
2018-05-21T02:42:04.898Z,12.76
2018-05-21T02:43:05.088Z,12.73
2018-05-21T02:44:05.276Z,12.79
2018-05-21T02:45:05.566Z,12.87
2018-05-21T02:46:05.697Z,12.72
2018-05-21T02:47:05.897Z,12.78
2018-05-21T02:48:06.086Z,12.70
2018-05-21T02:49:06.285Z,12.68
2018-05-21T02:50:06.528Z,12.61
2018-05-21T02:51:06.590Z,12.57
2018-05-21T02:52:06.807Z,12.60
2018-05-21T02:53:07.066Z,12.61
2018-05-21T02:54:07.152Z,12.58
2018-05-21T02:55:07.333Z,12.60
2018-05-21T02:56:07.524Z,12.60
2018-05-21T02:57:07.740Z,12.62
2018-05-21T02:58:07.930Z,12.60
2018-05-21T02:59:08.141Z,12.53
2018-05-21T03:00:08.343Z,12.60
2018-05-21T03:01:08.542Z,12.45
2018-05-21T03:02:08.764Z,12.54
2018-05-21T03:03:08.938Z,12.47
2018-05-21T03:04:09.160Z,12.47
2018-05-21T03:05:09.357Z,12.45
2018-05-21T03:06:09.610Z,12.49
2018-05-21T03:07:09.696Z,12.40
2018-05-21T03:08:09.898Z,12.43
2018-05-21T03:09:10.088Z,12.42
2018-05-21T03:10:10.278Z,12.32
2018-05-21T03:11:10.494Z,12.36
2018-05-21T03:12:10.730Z,12.37
2018-05-21T03:13:10.926Z,12.28
2018-05-21T03:14:11.132Z,12.28
2018-05-21T03:15:11.336Z,12.36
2018-05-21T03:16:11.560Z,12.32
2018-05-21T03:17:11.759Z,12.36
2018-05-21T03:18:11.953Z,12.31
2018-05-21T03:19:12.127Z,12.32
2018-05-21T03:20:12.327Z,12.29
2018-05-21T03:21:12.518Z,12.27
2018-05-21T03:22:12.732Z,12.28
2018-05-21T03:23:12.956Z,12.31
2018-05-21T03:24:13.148Z,12.28
2018-05-21T03:25:13.362Z,12.24
2018-05-21T03:26:13.547Z,12.29
2018-05-21T03:27:13.749Z,12.35
2018-05-21T03:28:13.973Z,12.27
2018-05-21T03:29:14.049Z,12.29
2018-05-21T03:30:14.251Z,12.39
2018-05-21T03:31:14.431Z,12.31
2018-05-21T03:32:14.657Z,12.27
2018-05-21T03:33:14.849Z,12.36
2018-05-21T03:34:15.045Z,12.37
2018-05-21T03:35:15.284Z,12.35
2018-05-21T03:36:15.359Z,12.40
2018-05-21T03:37:15.819Z,12.47
2018-05-21T03:38:15.887Z,12.47
2018-05-21T03:39:16.166Z,12.58
2018-05-21T03:40:16.273Z,12.60
2018-05-21T03:41:16.340Z,12.60
2018-05-21T03:42:16.537Z,12.60
2018-05-21T03:43:16.518Z,12.65
2018-05-21T03:44:16.712Z,12.64
2018-05-21T03:45:16.923Z,12.58
2018-05-21T03:46:17.115Z,12.55
2018-05-21T03:47:17.329Z,12.43
2018-05-21T03:48:17.652Z,12.43
2018-05-21T03:49:17.746Z,12.47
2018-05-21T03:50:17.961Z,12.46
2018-05-21T03:51:18.168Z,12.45
2018-05-21T03:52:25.856Z,12.43
2018-05-21T03:53:25.939Z,12.45
2018-05-21T03:54:18.750Z,12.40
2018-05-21T03:55:18.967Z,12.46
2018-05-21T03:56:19.162Z,12.54
2018-05-21T03:57:27.057Z,12.60
2018-05-21T03:58:19.517Z,12.60
2018-05-21T03:59:19.712Z,12.60
2018-05-21T04:00:19.938Z,12.62
2018-05-21T04:01:20.013Z,12.57
2018-05-21T04:02:20.204Z,12.60
2018-05-21T04:03:20.420Z,12.58
2018-05-21T04:04:20.629Z,12.60
2018-05-21T04:05:20.827Z,12.61
2018-05-21T04:06:21.014Z,12.68
2018-05-21T04:07:21.227Z,12.70
2018-05-21T04:08:21.669Z,12.82
2018-05-21T04:09:21.629Z,12.79
2018-05-21T04:10:21.829Z,12.90
2018-05-21T04:11:22.036Z,12.93
2018-05-21T04:12:22.219Z,12.95
2018-05-21T04:13:22.449Z,12.94
2018-05-21T04:14:22.567Z,13.01
2018-05-21T04:15:22.647Z,13.08
2018-05-21T04:16:22.886Z,13.01
2018-05-21T04:17:22.960Z,13.05
2018-05-21T04:18:23.160Z,13.11
2018-05-21T04:19:23.374Z,13.22
2018-05-21T04:20:23.602Z,13.31
2018-05-21T04:21:23.711Z,13.42
2018-05-21T04:22:23.784Z,13.28
2018-05-21T04:23:24.012Z,13.38
2018-05-21T04:24:24.207Z,13.37
2018-05-21T04:25:24.459Z,13.49
2018-05-21T04:26:24.525Z,13.44
2018-05-21T04:27:24.721Z,13.59
2018-05-21T04:28:24.920Z,13.63
2018-05-21T04:29:25.128Z,13.56
2018-05-21T04:30:25.331Z,13.67
2018-05-21T04:31:25.555Z,13.79
2018-05-21T04:32:25.736Z,13.77
2018-05-21T04:33:25.931Z,13.90
2018-05-21T04:34:26.111Z,13.99
2018-05-21T04:35:26.308Z,14.05
2018-05-21T04:36:26.494Z,14.00
2018-05-21T04:37:26.675Z,14.04
2018-05-21T04:38:26.865Z,14.12
2018-05-21T04:39:27.059Z,14.25
2018-05-21T04:40:27.251Z,14.23
2018-05-21T04:41:27.429Z,14.26
2018-05-21T04:42:27.632Z,14.41
2018-05-21T04:43:27.841Z,14.48
2018-05-21T04:44:28.052Z,14.45
2018-05-21T04:45:29.108Z,14.45
2018-05-21T04:46:28.449Z,14.50
2018-05-21T04:47:28.529Z,14.62
2018-05-21T04:48:28.723Z,14.66
2018-05-21T04:49:28.942Z,14.70
2018-05-21T04:50:29.028Z,14.81
2018-05-21T04:51:29.367Z,14.77
2018-05-21T04:52:29.611Z,14.81
2018-05-21T04:53:29.562Z,14.92
2018-05-21T04:54:29.876Z,14.92
2018-05-21T04:55:30.113Z,15.00
2018-05-21T04:56:30.153Z,15.00
2018-05-21T04:57:30.232Z,15.17
2018-05-21T04:58:30.415Z,15.18
2018-05-21T04:59:30.619Z,15.17
2018-05-21T05:00:30.820Z,15.28
2018-05-21T05:01:31.071Z,15.25
2018-05-21T05:02:31.159Z,15.43
2018-05-21T05:03:31.373Z,15.51
2018-05-21T05:04:31.579Z,15.51
2018-05-21T05:05:31.762Z,15.64
2018-05-21T05:06:31.964Z,15.67
2018-05-21T05:07:32.182Z,15.72
2018-05-21T05:08:32.380Z,15.82
2018-05-21T05:09:32.568Z,15.86
2018-05-21T05:10:32.773Z,15.82
2018-05-21T05:11:33.076Z,15.95
2018-05-21T05:12:33.103Z,15.91
2018-05-21T05:13:33.539Z,16.02
2018-05-21T05:14:33.412Z,16.02
2018-05-21T05:15:33.623Z,16.09
2018-05-21T05:16:33.839Z,16.10
2018-05-21T05:17:34.107Z,16.23
2018-05-21T05:18:34.151Z,16.31
2018-05-21T05:19:34.347Z,16.26
2018-05-21T05:20:34.542Z,16.41
2018-05-21T05:21:34.734Z,16.43
2018-05-21T05:22:34.934Z,16.50
2018-05-21T05:23:35.131Z,16.64
2018-05-21T05:24:35.326Z,16.65
2018-05-21T05:25:35.555Z,16.76
2018-05-21T05:26:35.706Z,16.86
2018-05-21T05:27:35.843Z,16.91
2018-05-21T05:28:36.033Z,16.96
2018-05-21T05:29:36.243Z,17.01
2018-05-21T05:30:36.432Z,17.12
2018-05-21T05:31:36.658Z,17.23
2018-05-21T05:32:36.850Z,17.29
2018-05-21T05:33:37.060Z,17.30
2018-05-21T05:34:37.246Z,17.26
2018-05-21T05:35:37.425Z,17.42
2018-05-21T05:36:37.632Z,17.31
2018-05-21T05:37:37.837Z,17.36
2018-05-21T05:38:38.026Z,17.38
2018-05-21T05:39:38.214Z,17.39
2018-05-21T05:40:38.402Z,17.42
2018-05-21T05:41:38.621Z,17.42
2018-05-21T05:42:38.801Z,17.46
2018-05-21T05:43:39.011Z,17.51
2018-05-21T05:44:39.222Z,17.59
2018-05-21T05:45:39.429Z,17.59
2018-05-21T05:46:39.617Z,17.67
2018-05-21T05:47:39.829Z,17.82
2018-05-21T05:48:40.034Z,17.90
2018-05-21T05:49:40.214Z,17.95
2018-05-21T05:50:40.409Z,18.00
2018-05-21T05:51:40.599Z,18.19
2018-05-21T05:52:40.788Z,18.10
2018-05-21T05:53:40.980Z,18.28
2018-05-21T05:54:41.166Z,18.20
2018-05-21T05:55:41.363Z,18.22
2018-05-21T05:56:44.400Z,18.38
2018-05-21T05:57:41.722Z,18.53
2018-05-21T05:58:41.791Z,18.55
2018-05-21T05:59:41.986Z,18.75
2018-05-21T06:00:42.178Z,18.75
2018-05-21T06:01:42.388Z,18.80
2018-05-21T06:02:45.108Z,18.92
2018-05-21T06:03:42.723Z,18.86
2018-05-21T06:04:42.908Z,18.99
2018-05-21T06:05:43.095Z,19.18
2018-05-21T06:06:43.297Z,19.26
2018-05-21T06:07:43.530Z,19.51
2018-05-21T06:08:43.598Z,19.58
2018-05-21T06:09:43.799Z,19.59
2018-05-21T06:10:43.985Z,19.64
2018-05-21T06:11:44.187Z,19.66
2018-05-21T06:12:44.374Z,19.88
2018-05-21T06:13:44.593Z,20.11
2018-05-21T06:14:44.756Z,20.24
2018-05-21T06:15:45.498Z,20.48
2018-05-21T06:16:53.004Z,20.88
2018-05-21T06:17:45.312Z,21.18
2018-05-21T06:18:45.508Z,21.54
2018-05-21T06:19:45.714Z,22.00
2018-05-21T06:20:45.903Z,22.43
2018-05-21T06:21:46.141Z,22.91
2018-05-21T06:22:46.232Z,23.32
2018-05-21T06:23:46.430Z,23.54
2018-05-21T06:24:46.621Z,24.02
2018-05-21T06:25:46.897Z,24.54
2018-05-21T06:26:46.929Z,24.76
2018-05-21T06:27:47.119Z,24.85
2018-05-21T06:28:47.335Z,25.40
2018-05-21T06:29:47.535Z,25.93
2018-05-21T06:30:47.730Z,26.36
2018-05-21T06:31:47.928Z,26.93
2018-05-21T06:32:48.112Z,27.27
2018-05-21T06:33:48.346Z,27.63
2018-05-21T06:34:48.536Z,27.98
2018-05-21T06:35:48.726Z,28.12
2018-05-21T06:36:48.913Z,28.11
2018-05-21T06:37:49.096Z,28.38
2018-05-21T06:38:49.294Z,28.64
2018-05-21T06:39:49.498Z,28.72
2018-05-21T06:40:49.692Z,28.97
2018-05-21T06:41:49.889Z,29.07
2018-05-21T06:42:50.104Z,29.42
2018-05-21T06:43:50.309Z,29.44
2018-05-21T06:44:50.501Z,29.39
2018-05-21T06:45:50.708Z,29.71
2018-05-21T06:46:50.913Z,29.78
2018-05-21T06:47:51.148Z,29.94
2018-05-21T06:48:51.321Z,29.61
2018-05-21T06:49:51.516Z,29.78
2018-05-21T06:50:51.718Z,30.21
2018-05-21T06:51:51.907Z,30.53
2018-05-21T06:52:52.389Z,30.68
2018-05-21T06:53:52.329Z,31.03
2018-05-21T06:54:52.536Z,31.17
2018-05-21T06:55:52.734Z,30.99
2018-05-21T06:56:52.926Z,30.72
2018-05-21T06:57:53.122Z,30.46
2018-05-21T06:58:53.309Z,30.48
2018-05-21T06:59:53.568Z,30.44
2018-05-21T07:00:53.698Z,30.46
2018-05-21T07:01:53.902Z,30.50
2018-05-21T07:02:54.136Z,30.06
2018-05-21T07:03:54.296Z,30.08
2018-05-21T07:04:54.507Z,30.77
2018-05-21T07:05:54.723Z,31.17
2018-05-21T07:06:54.923Z,31.44
2018-05-21T07:07:55.172Z,30.92
2018-05-21T07:08:55.331Z,31.39
2018-05-21T07:09:55.536Z,31.51
2018-05-21T07:10:55.749Z,31.74
2018-05-21T07:11:55.962Z,32.11
2018-05-21T07:12:56.157Z,32.08
2018-05-21T07:13:56.358Z,32.45
2018-05-21T07:14:56.574Z,32.63
2018-05-21T07:15:56.778Z,32.86
2018-05-21T07:16:56.979Z,33.05
2018-05-21T07:17:57.175Z,33.74
2018-05-21T07:18:57.400Z,33.98
2018-05-21T07:19:57.615Z,34.10
2018-05-21T07:20:57.825Z,34.85
2018-05-21T07:21:58.015Z,35.29
2018-05-21T07:22:58.225Z,35.34
2018-05-21T07:23:58.428Z,35.56
2018-05-21T07:24:58.628Z,35.88
2018-05-21T07:25:58.834Z,35.56
2018-05-21T07:26:59.038Z,35.71
2018-05-21T07:27:59.242Z,36.07
2018-05-21T07:28:59.447Z,36.23
2018-05-21T07:29:59.652Z,36.33
2018-05-21T07:30:59.852Z,36.51
2018-05-21T07:32:00.043Z,36.51
2018-05-21T07:33:00.244Z,37.02
2018-05-21T07:34:00.443Z,37.10
2018-05-21T07:35:00.640Z,36.73
2018-05-21T07:36:00.843Z,36.67
2018-05-21T07:37:01.055Z,36.73
2018-05-21T07:38:01.278Z,36.98
2018-05-21T07:39:01.483Z,37.49
2018-05-21T07:40:01.671Z,36.88
2018-05-21T07:41:01.900Z,36.57
2018-05-21T07:42:02.086Z,36.62
2018-05-21T07:43:02.290Z,37.14
2018-05-21T07:44:02.492Z,37.45
2018-05-21T07:45:02.684Z,37.64
2018-05-21T07:46:02.888Z,37.67
2018-05-21T07:47:03.093Z,37.70
2018-05-21T07:48:03.296Z,37.78
2018-05-21T07:49:03.491Z,37.90
2018-05-21T07:50:03.693Z,38.01
2018-05-21T07:51:03.896Z,37.59
2018-05-21T07:52:04.089Z,37.68
2018-05-21T07:53:04.289Z,37.89
2018-05-21T07:54:04.489Z,38.09
2018-05-21T07:55:04.691Z,38.02
2018-05-21T07:56:04.905Z,37.65
2018-05-21T07:57:05.101Z,37.08
2018-05-21T07:58:05.306Z,37.25
2018-05-21T07:59:05.506Z,37.56
2018-05-21T08:00:05.722Z,37.96
2018-05-21T08:01:05.936Z,38.04
2018-05-21T08:02:06.137Z,37.89
2018-05-21T08:03:06.346Z,38.33
2018-05-21T08:04:06.551Z,38.84
2018-05-21T08:05:06.789Z,38.91
2018-05-21T08:06:06.987Z,38.69
2018-05-21T08:07:07.193Z,38.45
2018-05-21T08:08:07.394Z,37.86
2018-05-21T08:09:07.646Z,38.12
2018-05-21T08:10:07.792Z,38.24
2018-05-21T08:11:07.972Z,38.31
2018-05-21T08:12:08.177Z,38.06
2018-05-21T08:13:08.379Z,38.11
2018-05-21T08:14:08.585Z,37.90
2018-05-21T08:15:08.787Z,37.71
2018-05-21T08:16:09.031Z,37.28
2018-05-21T08:17:09.122Z,37.71
2018-05-21T08:18:09.341Z,38.05
2018-05-21T08:19:09.541Z,38.38
2018-05-21T08:20:09.755Z,38.62
2018-05-21T08:21:09.966Z,38.74
2018-05-21T08:22:10.246Z,38.67
2018-05-21T08:23:10.390Z,38.60
2018-05-21T08:24:11.964Z,38.84
2018-05-21T08:25:10.774Z,38.69
2018-05-21T08:26:10.978Z,38.45
2018-05-21T08:27:11.211Z,38.95
2018-05-21T08:28:11.371Z,38.82
2018-05-21T08:29:11.603Z,38.57
2018-05-21T08:30:11.795Z,39.00
2018-05-21T08:31:12.064Z,39.34
2018-05-21T08:32:12.217Z,39.21
2018-05-21T08:33:12.419Z,39.04
2018-05-21T08:34:12.614Z,38.76
2018-05-21T08:35:12.818Z,38.42
2018-05-21T08:36:13.050Z,38.97
2018-05-21T08:37:13.252Z,38.99
2018-05-21T08:38:13.480Z,39.24
2018-05-21T08:39:13.665Z,39.40
2018-05-21T08:40:13.861Z,39.11
2018-05-21T08:41:14.069Z,39.46
2018-05-21T08:42:14.263Z,39.67
2018-05-21T08:43:14.485Z,39.99
2018-05-21T08:44:14.719Z,40.12
2018-05-21T08:45:14.905Z,40.14
2018-05-21T08:46:15.101Z,39.92
2018-05-21T08:47:15.363Z,39.96
2018-05-21T08:48:15.559Z,39.65
2018-05-21T08:49:15.785Z,39.33
2018-05-21T08:50:15.965Z,39.49
2018-05-21T08:51:16.161Z,39.48
2018-05-21T08:52:16.419Z,39.07
2018-05-21T08:53:16.606Z,39.07
2018-05-21T08:54:16.794Z,38.97
2018-05-21T08:55:17.059Z,38.74
2018-05-21T08:56:17.194Z,38.17
2018-05-21T08:57:17.411Z,38.52
2018-05-21T08:58:17.607Z,37.96
2018-05-21T08:59:17.804Z,38.09
2018-05-21T09:00:18.060Z,38.45
2018-05-21T09:01:18.212Z,38.45
2018-05-21T09:02:18.418Z,38.96
2018-05-21T09:03:18.660Z,39.15
2018-05-21T09:04:18.869Z,39.03
2018-05-21T09:05:19.080Z,39.04
2018-05-21T09:06:19.415Z,38.77
2018-05-21T09:07:19.496Z,37.64
2018-05-21T09:08:19.698Z,37.03
2018-05-21T09:09:19.883Z,36.25
2018-05-21T09:10:20.092Z,36.35
2018-05-21T09:11:20.287Z,36.21
2018-05-21T09:12:20.519Z,35.66
2018-05-21T09:13:20.684Z,36.21
2018-05-21T09:14:20.888Z,36.55
2018-05-21T09:15:21.098Z,37.32
2018-05-21T09:16:21.305Z,37.65
2018-05-21T09:17:21.747Z,38.36
2018-05-21T09:18:21.898Z,38.54
2018-05-21T09:19:22.053Z,38.26
2018-05-21T09:20:22.040Z,37.18
2018-05-21T09:21:22.223Z,36.74
2018-05-21T09:22:22.441Z,36.95
2018-05-21T09:23:22.663Z,36.89
2018-05-21T09:24:23.006Z,36.23
2018-05-21T09:25:23.022Z,35.92
2018-05-21T09:26:23.294Z,36.25
2018-05-21T09:27:23.446Z,36.72
2018-05-21T09:28:23.553Z,36.09
2018-05-21T09:29:23.967Z,36.00
2018-05-21T09:30:23.873Z,35.78
2018-05-21T09:31:24.016Z,36.72
2018-05-21T09:32:24.224Z,37.55
2018-05-21T09:33:24.424Z,37.92
2018-05-21T09:34:24.635Z,36.47
2018-05-21T09:35:24.912Z,37.01
2018-05-21T09:36:25.149Z,35.93
2018-05-21T09:37:25.282Z,36.14
2018-05-21T09:38:26.461Z,35.34
2018-05-21T09:39:25.851Z,35.18
2018-05-21T09:40:27.355Z,35.34
2018-05-21T09:41:27.153Z,35.82
2018-05-21T09:42:29.589Z,36.54
2018-05-21T09:43:29.935Z,36.67
2018-05-21T09:44:28.597Z,37.18
2018-05-21T09:45:27.189Z,36.81
2018-05-21T09:46:27.445Z,36.84
2018-05-21T09:47:28.012Z,36.25
2018-05-21T09:48:28.392Z,36.33
2018-05-21T09:49:28.860Z,36.76
2018-05-21T09:50:27.459Z,36.57
2018-05-21T09:51:29.928Z,36.51
2018-05-21T09:52:29.248Z,37.01
2018-05-21T09:53:29.551Z,37.21
2018-05-21T09:54:29.335Z,36.84
2018-05-21T09:55:30.077Z,37.23
2018-05-21T09:56:30.985Z,36.37
2018-05-21T09:57:28.669Z,36.52
2018-05-21T09:58:31.140Z,35.98
2018-05-21T09:59:34.067Z,35.42
2018-05-21T10:00:29.098Z,35.82
2018-05-21T10:01:29.294Z,36.25
2018-05-21T10:02:29.568Z,36.17
2018-05-21T10:03:29.644Z,36.12
2018-05-21T10:04:29.854Z,35.82
2018-05-21T10:05:30.080Z,35.76
2018-05-21T10:06:30.282Z,35.19
2018-05-21T10:07:30.492Z,35.19
2018-05-21T10:08:30.716Z,35.07
2018-05-21T10:09:30.922Z,34.57
2018-05-21T10:10:31.316Z,34.16
2018-05-21T10:11:31.269Z,33.05
2018-05-21T10:12:31.497Z,32.89
2018-05-21T10:13:31.757Z,32.67
2018-05-21T10:14:31.835Z,32.90
2018-05-21T10:15:32.076Z,32.77
2018-05-21T10:16:32.360Z,32.86
2018-05-21T10:17:32.479Z,32.68
2018-05-21T10:18:32.584Z,32.23
2018-05-21T10:19:32.788Z,32.03
2018-05-21T10:20:32.777Z,32.14
2018-05-21T10:21:33.128Z,32.09
2018-05-21T10:22:33.159Z,31.76
2018-05-21T10:23:33.393Z,32.00
2018-05-21T10:24:33.662Z,32.03
2018-05-21T10:25:33.765Z,32.04
2018-05-21T10:26:33.994Z,31.89
2018-05-21T10:27:34.280Z,31.96
2018-05-21T10:28:34.424Z,31.54
2018-05-21T10:29:34.490Z,31.55
2018-05-21T10:30:34.725Z,31.71
2018-05-21T10:31:34.855Z,31.43
2018-05-21T10:32:34.947Z,31.09
2018-05-21T10:33:35.193Z,30.68
2018-05-21T10:34:35.301Z,30.66
2018-05-21T10:35:35.491Z,30.84
2018-05-21T10:36:35.696Z,30.72
2018-05-21T10:37:35.885Z,30.77
2018-05-21T10:38:36.084Z,30.63
2018-05-21T10:39:36.275Z,30.57
2018-05-21T10:40:36.471Z,30.63
2018-05-21T10:41:36.673Z,30.73
2018-05-21T10:42:45.021Z,30.85
2018-05-21T10:43:37.093Z,30.84
2018-05-21T10:44:37.317Z,30.61
2018-05-21T10:45:46.226Z,30.61
2018-05-21T10:46:37.739Z,30.35
2018-05-21T10:47:37.833Z,30.40
2018-05-21T10:48:45.904Z,30.65
2018-05-21T10:49:38.243Z,30.06
2018-05-21T10:50:38.459Z,30.09
2018-05-21T10:51:38.723Z,30.12
2018-05-21T10:52:38.799Z,30.27
2018-05-21T10:53:39.048Z,30.32
2018-05-21T10:54:39.136Z,29.87
2018-05-21T10:55:39.388Z,30.13
2018-05-21T10:56:39.463Z,30.00
2018-05-21T10:57:39.800Z,29.72
2018-05-21T10:58:39.830Z,29.59
2018-05-21T10:59:39.959Z,29.59
2018-05-21T11:00:40.079Z,29.72
2018-05-21T11:01:40.189Z,29.36
2018-05-21T11:02:40.412Z,29.13
2018-05-21T11:03:40.639Z,28.86
2018-05-21T11:04:40.740Z,28.89
2018-05-21T11:05:41.044Z,28.84
2018-05-21T11:06:41.179Z,28.82
2018-05-21T11:07:41.332Z,28.89
2018-05-21T11:08:41.479Z,29.02
2018-05-21T11:09:41.571Z,29.16
2018-05-21T11:10:41.844Z,29.07
2018-05-21T11:11:41.938Z,28.97
2018-05-21T11:12:42.150Z,29.16
2018-05-21T11:13:42.409Z,29.10
2018-05-21T11:14:42.564Z,29.12
2018-05-21T11:15:42.664Z,29.13
2018-05-21T11:16:42.791Z,28.78
2018-05-21T11:17:42.910Z,28.88
2018-05-21T11:18:43.013Z,28.84
2018-05-21T11:19:43.326Z,29.07
2018-05-21T11:20:43.472Z,28.96
2018-05-21T11:21:43.581Z,28.94
2018-05-21T11:22:43.784Z,28.98
2018-05-21T11:23:43.927Z,28.96
2018-05-21T11:24:44.127Z,29.12
2018-05-21T11:25:44.185Z,29.14
2018-05-21T11:26:44.331Z,29.04
2018-05-21T11:27:44.464Z,29.16
2018-05-21T11:28:44.586Z,28.91
2018-05-21T11:29:44.690Z,28.85
2018-05-21T11:30:44.914Z,28.76
2018-05-21T11:31:45.110Z,28.64
2018-05-21T11:32:45.307Z,28.82
2018-05-21T11:33:45.661Z,28.76
2018-05-21T11:34:45.765Z,28.88
2018-05-21T11:35:45.907Z,28.86
2018-05-21T11:36:46.181Z,28.74
2018-05-21T11:37:46.203Z,28.66
2018-05-21T11:38:46.312Z,28.85
2018-05-21T11:39:46.412Z,28.88
2018-05-21T11:40:46.703Z,28.88
2018-05-21T11:41:46.951Z,28.89
2018-05-21T11:42:47.060Z,28.98
2018-05-21T11:43:47.155Z,28.97
2018-05-21T11:44:47.251Z,28.59
2018-05-21T11:45:47.367Z,28.47
2018-05-21T11:46:47.555Z,28.48
2018-05-21T11:47:47.695Z,28.33
2018-05-21T11:48:47.805Z,28.37
2018-05-21T11:49:47.995Z,28.37
2018-05-21T11:50:48.298Z,28.42
2018-05-21T11:51:48.376Z,28.33
2018-05-21T11:52:48.671Z,28.41
2018-05-21T11:53:48.790Z,28.37
2018-05-21T11:54:48.897Z,28.52
2018-05-21T11:55:49.119Z,28.42
2018-05-21T11:56:49.399Z,28.39
2018-05-21T11:57:49.507Z,28.37
2018-05-21T11:58:49.751Z,28.39
2018-05-21T11:59:49.862Z,28.33
2018-05-21T12:00:50.155Z,28.38
2018-05-21T12:01:50.238Z,28.01
2018-05-21T12:02:50.460Z,28.04
2018-05-21T12:03:50.693Z,28.02
2018-05-21T12:04:50.952Z,27.89
2018-05-21T12:05:51.055Z,28.05
2018-05-21T12:06:51.255Z,28.10
2018-05-21T12:07:51.474Z,28.20
2018-05-21T12:08:51.776Z,28.15
2018-05-21T12:09:51.872Z,28.14
2018-05-21T12:10:52.287Z,27.89
2018-05-21T12:11:52.245Z,27.96
2018-05-21T12:12:52.458Z,28.04
2018-05-21T12:13:52.712Z,27.86
2018-05-21T12:14:52.844Z,27.78
2018-05-21T12:15:53.100Z,27.75
2018-05-21T12:16:53.153Z,27.71
2018-05-21T12:17:53.324Z,27.63
2018-05-21T12:18:53.437Z,27.17
2018-05-21T12:19:53.542Z,26.84
2018-05-21T12:20:53.766Z,26.77
2018-05-21T12:21:54.075Z,26.88
2018-05-21T12:22:54.217Z,26.92
2018-05-21T12:23:54.294Z,26.88
2018-05-21T12:24:54.532Z,26.93
2018-05-21T12:25:54.619Z,26.96
2018-05-21T12:26:54.867Z,27.05
2018-05-21T12:27:54.961Z,27.18
2018-05-21T12:28:55.212Z,27.33
2018-05-21T12:29:55.292Z,27.48
2018-05-21T12:30:55.506Z,27.55
2018-05-21T12:31:55.745Z,27.60
2018-05-21T12:32:55.911Z,27.64
2018-05-21T12:33:56.023Z,27.55
2018-05-21T12:34:56.121Z,27.64
2018-05-21T12:35:56.332Z,27.80
2018-05-21T12:36:56.611Z,27.86
2018-05-21T12:37:56.769Z,27.90
2018-05-21T12:38:56.846Z,27.95
2018-05-21T12:39:57.086Z,28.02
2018-05-21T12:40:57.212Z,28.01
2018-05-21T12:41:57.331Z,28.02
2018-05-21T12:42:57.497Z,27.93
2018-05-21T12:43:57.617Z,27.96
2018-05-21T12:44:57.725Z,27.73
2018-05-21T12:45:57.844Z,27.85
2018-05-21T12:46:58.155Z,27.98
2018-05-21T12:47:58.221Z,28.04
2018-05-21T12:48:58.355Z,28.04
2018-05-21T12:49:58.454Z,28.07
2018-05-21T12:50:58.671Z,27.90
2018-05-21T12:51:58.941Z,27.73
2018-05-21T12:52:59.014Z,27.71
2018-05-21T12:53:59.272Z,27.63
2018-05-21T12:54:59.377Z,27.39